createdAt,value
2024-02-08T00:00:03.374Z,6.69
2024-02-08T00:00:13.378Z,6.68
2024-02-08T00:00:23.426Z,6.69
2024-02-08T00:00:33.375Z,6.68
2024-02-08T00:00:43.400Z,6.68
2024-02-08T00:00:53.394Z,6.68
2024-02-08T00:01:13.468Z,6.68
2024-02-08T00:01:23.525Z,6.68
2024-02-08T00:01:33.507Z,6.65
2024-02-08T00:01:43.385Z,6.68
2024-02-08T00:01:53.400Z,6.64
2024-02-08T00:02:03.455Z,6.65
2024-02-08T00:02:23.410Z,6.68
2024-02-08T00:02:33.353Z,6.65
2024-02-08T00:02:43.358Z,6.65
2024-02-08T00:02:54.163Z,6.64
2024-02-08T00:03:03.356Z,6.65
2024-02-08T00:03:13.355Z,6.65
2024-02-08T00:03:33.348Z,6.65
2024-02-08T00:03:43.370Z,6.68
2024-02-08T00:03:53.350Z,6.64
2024-02-08T00:04:03.418Z,6.63
2024-02-08T00:04:13.398Z,6.65
2024-02-08T00:04:23.454Z,6.68
2024-02-08T00:04:43.442Z,6.64
2024-02-08T00:04:53.371Z,6.68
2024-02-08T00:05:03.470Z,6.65
2024-02-08T00:05:13.363Z,6.64
2024-02-08T00:05:23.368Z,6.65
2024-02-08T00:05:33.434Z,6.65
2024-02-08T00:05:43.359Z,6.64
2024-02-08T00:06:03.341Z,6.64
2024-02-08T00:06:13.401Z,6.65
2024-02-08T00:06:23.336Z,6.65
2024-02-08T00:06:33.704Z,6.64
2024-02-08T00:06:43.389Z,6.64
2024-02-08T00:06:53.340Z,6.64
2024-02-08T00:07:13.377Z,6.63
2024-02-08T00:07:23.355Z,6.64
2024-02-08T00:07:33.366Z,6.64
2024-02-08T00:07:43.343Z,6.64
2024-02-08T00:07:53.345Z,6.63
2024-02-08T00:08:03.367Z,6.63
2024-02-08T00:08:23.337Z,6.63
2024-02-08T00:08:33.319Z,6.64
2024-02-08T00:08:43.314Z,6.63
2024-02-08T00:08:53.307Z,6.63
2024-02-08T00:09:03.314Z,6.63
2024-02-08T00:09:13.342Z,6.63
2024-02-08T00:09:33.315Z,6.63
2024-02-08T00:09:43.304Z,6.64
2024-02-08T00:09:53.299Z,6.64
2024-02-08T00:10:03.308Z,6.61
2024-02-08T00:10:13.292Z,6.64
2024-02-08T00:10:23.325Z,6.63
2024-02-08T00:10:43.375Z,6.64
2024-02-08T00:10:53.345Z,6.63
2024-02-08T00:11:03.382Z,6.64
2024-02-08T00:11:13.385Z,6.64
2024-02-08T00:11:23.362Z,6.64
2024-02-08T00:11:33.289Z,6.64
2024-02-08T00:11:53.300Z,6.64
2024-02-08T00:12:03.288Z,6.64
2024-02-08T00:12:13.424Z,6.63
2024-02-08T00:12:23.300Z,6.63
2024-02-08T00:12:33.599Z,6.61
2024-02-08T00:12:43.286Z,6.64
2024-02-08T00:12:53.312Z,6.64
2024-02-08T00:13:13.294Z,6.61
2024-02-08T00:13:23.302Z,6.63
2024-02-08T00:13:34.060Z,6.63
2024-02-08T00:13:43.354Z,6.64
2024-02-08T00:13:53.310Z,6.63
2024-02-08T00:14:03.281Z,6.63
2024-02-08T00:14:23.265Z,6.61
2024-02-08T00:14:34.160Z,6.63
2024-02-08T00:14:43.263Z,6.63
2024-02-08T00:14:53.309Z,6.64
2024-02-08T00:15:03.260Z,6.63
2024-02-08T00:15:13.298Z,6.61
2024-02-08T00:15:33.254Z,6.64
2024-02-08T00:15:43.265Z,6.63
2024-02-08T00:15:54.035Z,6.64
2024-02-08T00:16:03.270Z,6.65
2024-02-08T00:16:13.251Z,6.63
2024-02-08T00:16:23.293Z,6.65
2024-02-08T00:16:43.285Z,6.63
2024-02-08T00:16:53.341Z,6.63
2024-02-08T00:17:03.345Z,6.65
2024-02-08T00:17:13.264Z,6.65
2024-02-08T00:17:23.324Z,6.64
2024-02-08T00:17:33.279Z,6.63
2024-02-08T00:17:53.329Z,6.63
2024-02-08T00:18:03.472Z,6.64
2024-02-08T00:18:13.335Z,6.64
2024-02-08T00:18:23.325Z,6.64
2024-02-08T00:18:33.409Z,6.64
2024-02-08T00:18:43.293Z,6.63
2024-02-08T00:19:03.291Z,6.65
2024-02-08T00:19:13.263Z,6.64
2024-02-08T00:19:23.261Z,6.63
2024-02-08T00:19:33.285Z,6.64
2024-02-08T00:19:43.272Z,6.64
2024-02-08T00:19:53.239Z,6.64
2024-02-08T00:20:13.224Z,6.65
2024-02-08T00:20:23.221Z,6.64
2024-02-08T00:20:33.285Z,6.64
2024-02-08T00:20:43.224Z,6.64
2024-02-08T00:20:53.214Z,6.63
2024-02-08T00:21:03.253Z,6.65
2024-02-08T00:21:13.959Z,6.65
2024-02-08T00:21:33.212Z,6.65
2024-02-08T00:21:43.212Z,6.64
2024-02-08T00:21:53.247Z,6.64
2024-02-08T00:22:03.267Z,6.65
2024-02-08T00:22:13.244Z,6.64
2024-02-08T00:22:24.014Z,6.65
2024-02-08T00:22:33.257Z,6.65
2024-02-08T00:22:53.216Z,6.65
2024-02-08T00:23:03.289Z,6.68
2024-02-08T00:23:13.260Z,6.68
2024-02-08T00:23:23.202Z,6.69
2024-02-08T00:23:33.312Z,6.69
2024-02-08T00:23:43.200Z,6.69
2024-02-08T00:23:53.206Z,6.69
2024-02-08T00:24:13.199Z,6.69
2024-02-08T00:24:23.197Z,6.69
2024-02-08T00:24:33.234Z,6.68
2024-02-08T00:24:43.204Z,6.71
2024-02-08T00:24:53.180Z,6.69
2024-02-08T00:25:03.188Z,6.69
2024-02-08T00:25:13.959Z,6.69
2024-02-08T00:25:33.204Z,6.71
2024-02-08T00:25:43.195Z,6.71
2024-02-08T00:25:53.226Z,6.69
2024-02-08T00:26:03.235Z,6.71
2024-02-08T00:26:13.224Z,6.71
2024-02-08T00:26:23.182Z,6.69
2024-02-08T00:26:33.226Z,6.71
2024-02-08T00:26:53.179Z,6.71
2024-02-08T00:27:03.184Z,6.71
2024-02-08T00:27:13.167Z,6.71
2024-02-08T00:27:23.242Z,6.71
2024-02-08T00:27:33.191Z,6.72
2024-02-08T00:27:43.197Z,6.69
2024-02-08T00:28:03.164Z,6.69
2024-02-08T00:28:13.339Z,6.71
2024-02-08T00:28:23.186Z,6.71
2024-02-08T00:28:33.207Z,6.71
2024-02-08T00:28:43.203Z,6.71
2024-02-08T00:28:53.197Z,6.71
2024-02-08T00:29:13.232Z,6.71
2024-02-08T00:29:23.157Z,6.71
2024-02-08T00:29:33.143Z,6.72
2024-02-08T00:29:44.904Z,6.71
2024-02-08T00:29:53.173Z,6.69
2024-02-08T00:30:03.161Z,6.71
2024-02-08T00:30:13.178Z,6.72
2024-02-08T00:30:33.175Z,6.73
2024-02-08T00:30:43.151Z,6.72
2024-02-08T00:30:53.137Z,6.73
2024-02-08T00:31:04.450Z,6.73
2024-02-08T00:31:13.153Z,6.73
2024-02-08T00:31:23.187Z,6.73
2024-02-08T00:31:43.154Z,6.72
2024-02-08T00:31:53.171Z,6.72
2024-02-08T00:32:03.257Z,6.73
2024-02-08T00:32:13.159Z,6.72
2024-02-08T00:32:23.134Z,6.73
2024-02-08T00:32:33.137Z,6.71
2024-02-08T00:32:53.183Z,6.73
2024-02-08T00:33:03.146Z,6.72
2024-02-08T00:33:13.226Z,6.73
2024-02-08T00:33:23.126Z,6.73
2024-02-08T00:33:33.148Z,6.73
2024-02-08T00:33:43.199Z,6.73
2024-02-08T00:34:03.174Z,6.75
2024-02-08T00:34:13.198Z,6.75
2024-02-08T00:34:23.254Z,6.73
2024-02-08T00:34:33.218Z,6.75
2024-02-08T00:34:43.229Z,6.76
2024-02-08T00:34:53.267Z,6.75
2024-02-08T00:35:13.225Z,6.75
2024-02-08T00:35:23.188Z,6.75
2024-02-08T00:35:33.176Z,6.75
2024-02-08T00:35:43.220Z,6.75
2024-02-08T00:35:53.119Z,6.75
2024-02-08T00:36:03.958Z,6.76
2024-02-08T00:36:23.098Z,6.75
2024-02-08T00:36:33.677Z,6.75
2024-02-08T00:36:43.113Z,6.73
2024-02-08T00:36:53.098Z,6.75
2024-02-08T00:37:03.139Z,6.73
2024-02-08T00:37:13.124Z,6.73
2024-02-08T00:37:33.104Z,6.76
2024-02-08T00:37:43.087Z,6.76
2024-02-08T00:37:54.040Z,6.76
2024-02-08T00:38:03.740Z,6.75
2024-02-08T00:38:13.261Z,6.73
2024-02-08T00:38:23.239Z,6.76
2024-02-08T00:38:43.124Z,6.76
2024-02-08T00:38:53.172Z,6.75
2024-02-08T00:39:03.146Z,6.75
2024-02-08T00:39:13.095Z,6.76
2024-02-08T00:39:23.073Z,6.75
2024-02-08T00:39:33.088Z,6.75
2024-02-08T00:39:43.079Z,6.73
2024-02-08T00:40:03.070Z,6.75
2024-02-08T00:40:13.078Z,6.75
2024-02-08T00:40:23.119Z,6.73
2024-02-08T00:40:33.078Z,6.73
2024-02-08T00:40:43.071Z,6.75
2024-02-08T00:40:53.106Z,6.75
2024-02-08T00:41:13.106Z,6.73
2024-02-08T00:41:23.057Z,6.73
2024-02-08T00:41:33.056Z,6.75
2024-02-08T00:41:43.997Z,6.75
2024-02-08T00:41:53.067Z,6.75
2024-02-08T00:42:03.061Z,6.73
2024-02-08T00:42:23.095Z,6.75
2024-02-08T00:42:33.057Z,6.73
2024-02-08T00:42:43.071Z,6.75
2024-02-08T00:42:53.053Z,6.73
2024-02-08T00:43:06.105Z,6.73
2024-02-08T00:43:13.504Z,6.72
2024-02-08T00:43:23.509Z,6.73
2024-02-08T00:43:33.482Z,6.72
2024-02-08T00:43:43.470Z,6.72
2024-02-08T00:43:53.517Z,6.72
2024-02-08T00:44:03.513Z,6.72
2024-02-08T00:44:23.451Z,6.73
2024-02-08T00:44:33.458Z,6.72
2024-02-08T00:44:43.448Z,6.72
2024-02-08T00:44:53.503Z,6.72
2024-02-08T00:45:03.498Z,6.72
2024-02-08T00:45:13.470Z,6.73
2024-02-08T00:45:24.184Z,6.71
2024-02-08T00:45:43.446Z,6.72
2024-02-08T00:45:53.464Z,6.72
2024-02-08T00:46:03.521Z,6.73
2024-02-08T00:46:13.511Z,6.73
2024-02-08T00:46:24.000Z,6.73
2024-02-08T00:46:33.515Z,6.73
2024-02-08T00:46:43.974Z,6.72
2024-02-08T00:47:03.542Z,6.73
2024-02-08T00:47:13.578Z,6.72
2024-02-08T00:47:23.425Z,6.73
2024-02-08T00:47:33.465Z,6.73
2024-02-08T00:47:43.477Z,6.72
2024-02-08T00:47:53.481Z,6.72
2024-02-08T00:48:04.246Z,6.73
2024-02-08T00:48:23.717Z,6.73
2024-02-08T00:48:34.109Z,6.73
2024-02-08T00:48:43.561Z,6.73
2024-02-08T00:48:53.480Z,6.75
2024-02-08T00:49:03.459Z,6.72
2024-02-08T00:49:13.473Z,6.73
2024-02-08T00:49:34.236Z,6.73
2024-02-08T00:49:43.447Z,6.73
2024-02-08T00:49:53.438Z,6.75
2024-02-08T00:50:03.514Z,6.73
2024-02-08T00:50:13.446Z,6.72
2024-02-08T00:50:23.404Z,6.72
2024-02-08T00:50:43.432Z,6.73
2024-02-08T00:50:53.416Z,6.73
2024-02-08T00:51:03.407Z,6.72
2024-02-08T00:51:13.458Z,6.73
2024-02-08T00:51:23.401Z,6.73
2024-02-08T00:51:33.458Z,6.73
2024-02-08T00:51:53.490Z,6.73
2024-02-08T00:52:03.414Z,6.73
2024-02-08T00:52:13.401Z,6.75
2024-02-08T00:52:23.443Z,6.73
2024-02-08T00:52:34.183Z,6.73
2024-02-08T00:52:43.393Z,6.73
2024-02-08T00:52:53.436Z,6.73
2024-02-08T00:53:13.459Z,6.75
2024-02-08T00:53:23.547Z,6.75
2024-02-08T00:53:33.436Z,6.73
2024-02-08T00:53:43.417Z,6.75
2024-02-08T00:53:53.391Z,6.73
2024-02-08T00:54:03.385Z,6.75
2024-02-08T00:54:23.377Z,6.75
2024-02-08T00:54:33.448Z,6.75
2024-02-08T00:54:43.377Z,6.76
2024-02-08T00:54:53.389Z,6.76
2024-02-08T00:55:03.492Z,6.76
2024-02-08T00:55:13.408Z,6.78
2024-02-08T00:55:33.457Z,6.76
2024-02-08T00:55:43.395Z,6.76
2024-02-08T00:55:53.433Z,6.78
2024-02-08T00:56:03.421Z,6.75
2024-02-08T00:56:13.455Z,6.76
2024-02-08T00:56:23.390Z,6.78
2024-02-08T00:56:43.369Z,6.75
2024-02-08T00:56:53.359Z,6.76
2024-02-08T00:57:03.404Z,6.78
2024-02-08T00:57:13.358Z,6.76
2024-02-08T00:57:23.346Z,6.76
2024-02-08T00:57:33.476Z,6.76
2024-02-08T00:57:53.360Z,6.75
2024-02-08T00:58:03.469Z,6.76
2024-02-08T00:58:13.360Z,6.76
2024-02-08T00:58:23.452Z,6.76
2024-02-08T00:58:33.389Z,6.75
2024-02-08T00:58:44.499Z,6.76
2024-02-08T00:59:03.374Z,6.76
2024-02-08T00:59:13.417Z,6.78
2024-02-08T00:59:23.376Z,6.76
2024-02-08T00:59:33.338Z,6.73
2024-02-08T00:59:43.339Z,6.75
2024-02-08T00:59:53.410Z,6.76
2024-02-08T01:00:13.349Z,6.75
2024-02-08T01:00:23.794Z,6.76
2024-02-08T01:00:33.424Z,6.75
2024-02-08T01:00:43.349Z,6.75
2024-02-08T01:00:53.382Z,6.75
2024-02-08T01:01:04.129Z,6.75
2024-02-08T01:01:23.458Z,6.73
2024-02-08T01:01:33.488Z,6.75
2024-02-08T01:01:43.356Z,6.73
2024-02-08T01:01:53.361Z,6.76
2024-02-08T01:02:03.390Z,6.75
2024-02-08T01:02:13.504Z,6.78
2024-02-08T01:02:33.316Z,6.78
2024-02-08T01:02:43.337Z,6.76
2024-02-08T01:02:53.347Z,6.76
2024-02-08T01:03:03.366Z,6.76
2024-02-08T01:03:13.369Z,6.78
2024-02-08T01:03:23.311Z,6.76
2024-02-08T01:03:33.402Z,6.78
2024-02-08T01:03:53.418Z,6.78
2024-02-08T01:04:03.353Z,6.78
2024-02-08T01:04:13.315Z,6.78
2024-02-08T01:04:23.347Z,6.78
2024-02-08T01:04:33.314Z,6.78
2024-02-08T01:04:43.313Z,6.76
2024-02-08T01:05:03.357Z,6.78
2024-02-08T01:05:13.335Z,6.78
2024-02-08T01:05:23.409Z,6.78
2024-02-08T01:05:33.315Z,6.78
2024-02-08T01:05:43.300Z,6.78
2024-02-08T01:05:53.327Z,6.79
2024-02-08T01:06:13.321Z,6.78
2024-02-08T01:06:23.281Z,6.78
2024-02-08T01:06:33.365Z,6.79
2024-02-08T01:06:43.313Z,6.79
2024-02-08T01:06:53.283Z,6.78
2024-02-08T01:07:03.279Z,6.76
2024-02-08T01:07:23.342Z,6.79
2024-02-08T01:07:33.372Z,6.76
2024-02-08T01:07:43.399Z,6.79
2024-02-08T01:07:53.348Z,6.78
2024-02-08T01:08:03.408Z,6.78
2024-02-08T01:08:13.428Z,6.76
2024-02-08T01:08:23.407Z,6.79
2024-02-08T01:08:43.286Z,6.78
2024-02-08T01:08:53.266Z,6.78
2024-02-08T01:09:03.957Z,6.78
2024-02-08T01:09:13.289Z,6.79
2024-02-08T01:09:23.267Z,6.79
2024-02-08T01:09:33.420Z,6.78
2024-02-08T01:09:53.280Z,6.78
2024-02-08T01:10:03.274Z,6.79
2024-02-08T01:10:13.296Z,6.81
2024-02-08T01:10:23.306Z,6.78
2024-02-08T01:10:33.431Z,6.79
2024-02-08T01:10:43.300Z,6.79
2024-02-08T01:11:03.382Z,6.79
2024-02-08T01:11:13.278Z,6.78
2024-02-08T01:11:23.371Z,6.78
2024-02-08T01:11:33.262Z,6.81
2024-02-08T01:11:43.237Z,6.79
2024-02-08T01:11:53.240Z,6.78
2024-02-08T01:12:04.071Z,6.78
2024-02-08T01:12:23.239Z,6.78
2024-02-08T01:12:33.267Z,6.79
2024-02-08T01:12:43.237Z,6.78
2024-02-08T01:12:53.249Z,6.78
2024-02-08T01:13:03.233Z,6.78
2024-02-08T01:13:13.241Z,6.78
2024-02-08T01:13:23.292Z,6.79
2024-02-08T01:13:33.357Z,6.79
2024-02-08T01:13:43.365Z,6.81
2024-02-08T01:13:53.357Z,6.81
2024-02-08T01:14:13.281Z,6.81
2024-02-08T01:14:23.269Z,6.81
2024-02-08T01:14:33.230Z,6.81
2024-02-08T01:14:43.221Z,6.81
2024-02-08T01:14:53.232Z,6.81
2024-02-08T01:15:03.281Z,6.81
2024-02-08T01:15:13.232Z,6.82
2024-02-08T01:15:33.247Z,6.82
2024-02-08T01:15:43.209Z,6.82
2024-02-08T01:15:53.277Z,6.82
2024-02-08T01:16:03.306Z,6.82
2024-02-08T01:16:13.261Z,6.82
2024-02-08T01:16:23.229Z,6.83
2024-02-08T01:16:33.299Z,6.82
2024-02-08T01:16:53.542Z,6.81
2024-02-08T01:17:03.263Z,6.82
2024-02-08T01:17:13.279Z,6.82
2024-02-08T01:17:23.200Z,6.81
2024-02-08T01:17:33.382Z,6.81
2024-02-08T01:17:43.286Z,6.82
2024-02-08T01:17:54.702Z,6.83
2024-02-08T01:18:03.365Z,6.83
2024-02-08T01:18:23.252Z,6.82
2024-02-08T01:18:33.262Z,6.83
2024-02-08T01:18:43.325Z,6.82
2024-02-08T01:18:53.317Z,6.83
2024-02-08T01:19:03.293Z,6.83
2024-02-08T01:19:13.298Z,6.83
2024-02-08T01:19:33.199Z,6.86
2024-02-08T01:19:43.208Z,6.82
2024-02-08T01:19:53.262Z,6.82
2024-02-08T01:20:03.640Z,6.86
2024-02-08T01:20:13.283Z,6.83
2024-02-08T01:20:23.178Z,6.86
2024-02-08T01:20:43.196Z,6.83
2024-02-08T01:20:53.180Z,6.86
2024-02-08T01:21:03.170Z,6.86
2024-02-08T01:21:13.167Z,6.86
2024-02-08T01:21:23.193Z,6.87
2024-02-08T01:21:33.169Z,6.87
2024-02-08T01:21:53.163Z,6.89
2024-02-08T01:22:03.179Z,6.89
2024-02-08T01:22:14.673Z,6.87
2024-02-08T01:22:23.217Z,6.89
2024-02-08T01:22:33.199Z,6.89
2024-02-08T01:22:44.240Z,6.89
2024-02-08T01:23:03.185Z,6.89
2024-02-08T01:23:13.306Z,6.89
2024-02-08T01:23:23.152Z,6.89
2024-02-08T01:23:33.156Z,6.89
2024-02-08T01:23:43.159Z,6.90
2024-02-08T01:23:53.148Z,6.89
2024-02-08T01:24:03.187Z,6.90
2024-02-08T01:24:23.148Z,6.89
2024-02-08T01:24:33.179Z,6.90
2024-02-08T01:24:43.281Z,6.90
2024-02-08T01:24:53.144Z,6.89
2024-02-08T01:25:03.205Z,6.90
2024-02-08T01:25:13.151Z,6.90
2024-02-08T01:25:33.175Z,6.91
2024-02-08T01:25:43.223Z,6.90
2024-02-08T01:25:53.163Z,6.90
2024-02-08T01:26:03.182Z,6.91
2024-02-08T01:26:13.378Z,6.90
2024-02-08T01:26:23.156Z,6.90
2024-02-08T01:26:33.174Z,6.91
2024-02-08T01:26:53.133Z,6.93
2024-02-08T01:27:03.130Z,6.93
2024-02-08T01:27:13.129Z,6.91
2024-02-08T01:27:23.129Z,6.93
2024-02-08T01:27:33.154Z,6.91
2024-02-08T01:27:43.955Z,6.93
2024-02-08T01:28:03.161Z,6.93
2024-02-08T01:28:13.124Z,6.90
2024-02-08T01:28:23.167Z,6.91
2024-02-08T01:28:33.703Z,6.91
2024-02-08T01:28:43.145Z,6.91
2024-02-08T01:28:53.165Z,6.91
2024-02-08T01:29:13.152Z,6.91
2024-02-08T01:29:23.106Z,6.94
2024-02-08T01:29:33.181Z,6.91
2024-02-08T01:29:43.140Z,6.93
2024-02-08T01:29:53.100Z,6.94
2024-02-08T01:30:03.126Z,6.93
2024-02-08T01:30:13.139Z,6.91
2024-02-08T01:30:33.107Z,6.93
2024-02-08T01:30:43.114Z,6.94
2024-02-08T01:30:53.097Z,6.93
2024-02-08T01:31:03.093Z,6.94
2024-02-08T01:31:13.094Z,6.94
2024-02-08T01:31:23.286Z,6.94
2024-02-08T01:31:43.184Z,6.94
2024-02-08T01:31:53.129Z,6.94
2024-02-08T01:32:03.378Z,6.93
2024-02-08T01:32:14.002Z,6.96
2024-02-08T01:32:23.180Z,6.93
2024-02-08T01:32:33.967Z,6.93
2024-02-08T01:32:53.152Z,6.96
2024-02-08T01:33:03.220Z,6.91
2024-02-08T01:33:13.156Z,6.94
2024-02-08T01:33:23.081Z,6.94
2024-02-08T01:33:33.122Z,6.94
2024-02-08T01:33:43.238Z,6.96
2024-02-08T01:34:03.295Z,6.93
2024-02-08T01:34:13.163Z,6.93
2024-02-08T01:34:23.175Z,6.94
2024-02-08T01:34:33.192Z,6.93
2024-02-08T01:34:43.214Z,6.94
2024-02-08T01:34:53.102Z,6.94
2024-02-08T01:35:13.141Z,6.93
2024-02-08T01:35:23.844Z,6.94
2024-02-08T01:35:33.274Z,6.94
2024-02-08T01:35:43.079Z,6.97
2024-02-08T01:35:53.097Z,6.96
2024-02-08T01:36:03.055Z,6.96
2024-02-08T01:36:13.106Z,6.94
2024-02-08T01:36:23.289Z,6.93
2024-02-08T01:36:43.054Z,6.96
2024-02-08T01:36:53.773Z,6.94
2024-02-08T01:37:03.099Z,6.96
2024-02-08T01:37:13.077Z,6.94
2024-02-08T01:37:23.103Z,6.94
2024-02-08T01:37:34.041Z,6.96
2024-02-08T01:37:53.131Z,6.96
2024-02-08T01:38:03.135Z,6.96
2024-02-08T01:38:13.191Z,6.94
2024-02-08T01:38:23.047Z,6.96
2024-02-08T01:38:33.183Z,6.94
2024-02-08T01:38:43.671Z,6.94
2024-02-08T01:38:53.045Z,6.94
2024-02-08T01:39:13.027Z,6.93
2024-02-08T01:39:23.067Z,6.96
2024-02-08T01:39:33.106Z,6.94
2024-02-08T01:39:43.056Z,6.94
2024-02-08T01:39:53.027Z,6.94
2024-02-08T01:40:03.078Z,6.93
2024-02-08T01:40:13.056Z,6.94
2024-02-08T01:40:33.042Z,6.96
2024-02-08T01:40:44.035Z,6.94
2024-02-08T01:40:53.066Z,6.93
2024-02-08T01:41:04.251Z,6.94
2024-02-08T01:41:13.047Z,6.94
2024-02-08T01:41:23.016Z,6.96
2024-02-08T01:41:43.012Z,6.94
2024-02-08T01:41:53.019Z,6.93
2024-02-08T01:42:03.023Z,6.94
2024-02-08T01:42:13.035Z,6.94
2024-02-08T01:42:23.006Z,6.94
2024-02-08T01:42:33.004Z,6.94
2024-02-08T01:42:53.000Z,6.96
2024-02-08T01:43:03.015Z,6.94
2024-02-08T01:43:13.036Z,6.94
2024-02-08T01:43:23.048Z,6.93
2024-02-08T01:43:33.050Z,6.93
2024-02-08T01:43:43.090Z,6.93
2024-02-08T01:44:03.153Z,6.93
2024-02-08T01:44:13.045Z,6.93
2024-02-08T01:44:23.108Z,6.93
2024-02-08T01:44:32.997Z,6.94
2024-02-08T01:44:43.008Z,6.96
2024-02-08T01:44:52.990Z,6.96
2024-02-08T01:45:12.981Z,6.96
2024-02-08T01:45:23.063Z,6.96
2024-02-08T01:45:32.986Z,6.94
2024-02-08T01:45:43.028Z,6.97
2024-02-08T01:45:52.976Z,6.96
2024-02-08T01:46:02.998Z,6.96
2024-02-08T01:46:12.988Z,6.96
2024-02-08T01:46:33.006Z,6.96
2024-02-08T01:46:42.998Z,6.96
2024-02-08T01:46:53.001Z,6.96
2024-02-08T01:47:03.073Z,6.97
2024-02-08T01:47:13.047Z,6.96
2024-02-08T01:47:22.976Z,6.96
2024-02-08T01:47:33.036Z,6.97
2024-02-08T01:47:43.111Z,6.97
2024-02-08T01:48:03.119Z,6.99
2024-02-08T01:48:13.529Z,6.97
2024-02-08T01:48:23.072Z,6.97
2024-02-08T01:48:33.049Z,6.96
2024-02-08T01:48:43.000Z,6.96
2024-02-08T01:48:53.015Z,6.97
2024-02-08T01:49:12.997Z,6.97
2024-02-08T01:49:23.154Z,6.96
2024-02-08T01:49:33.001Z,6.96
2024-02-08T01:49:42.970Z,6.97
2024-02-08T01:49:53.029Z,6.96
2024-02-08T01:50:03.124Z,6.96
2024-02-08T01:50:13.078Z,6.97
2024-02-08T01:50:32.938Z,6.94
2024-02-08T01:50:43.589Z,6.96
2024-02-08T01:50:52.965Z,6.96
2024-02-08T01:51:03.061Z,6.96
2024-02-08T01:51:12.938Z,6.96
2024-02-08T01:51:22.942Z,6.96
2024-02-08T01:51:32.983Z,6.97
2024-02-08T01:51:52.990Z,6.94
2024-02-08T01:52:03.025Z,6.96
2024-02-08T01:52:12.931Z,6.97
2024-02-08T01:52:23.044Z,6.97
2024-02-08T01:52:32.984Z,6.97
2024-02-08T01:52:42.931Z,6.96
2024-02-08T01:53:03.050Z,6.97
2024-02-08T01:53:13.153Z,6.97
2024-02-08T01:53:22.926Z,6.97
2024-02-08T01:53:32.923Z,6.97
2024-02-08T01:53:42.962Z,6.97
2024-02-08T01:53:52.923Z,6.97
2024-02-08T01:54:03.016Z,6.96
2024-02-08T01:54:22.927Z,6.97
2024-02-08T01:54:32.914Z,6.97
2024-02-08T01:54:42.987Z,6.97
2024-02-08T01:54:52.907Z,6.96
2024-02-08T01:55:02.924Z,6.96
2024-02-08T01:55:12.912Z,6.97
2024-02-08T01:55:33.681Z,6.97
2024-02-08T01:55:42.964Z,6.97
2024-02-08T01:55:53.475Z,6.96
2024-02-08T01:56:03.073Z,6.97
2024-02-08T01:56:13.109Z,6.96
2024-02-08T01:56:23.056Z,6.97
2024-02-08T01:56:42.918Z,6.97
2024-02-08T01:56:52.894Z,6.97
2024-02-08T01:57:03.018Z,6.99
2024-02-08T01:57:13.460Z,6.97
2024-02-08T01:57:22.902Z,6.97
2024-02-08T01:57:32.903Z,6.97
2024-02-08T01:57:42.918Z,6.97
2024-02-08T01:57:52.961Z,6.97
2024-02-08T01:58:12.915Z,6.97
2024-02-08T01:58:22.990Z,6.99
2024-02-08T01:58:33.216Z,6.97
2024-02-08T01:58:42.978Z,6.99
2024-02-08T01:58:52.922Z,6.97
2024-02-08T01:59:02.944Z,7.00
2024-02-08T01:59:22.891Z,6.99
2024-02-08T01:59:32.981Z,6.99
2024-02-08T01:59:42.901Z,6.99
2024-02-08T01:59:52.887Z,6.97
2024-02-08T02:00:02.887Z,6.99
2024-02-08T02:00:12.887Z,7.00
2024-02-08T02:00:35.442Z,6.99
2024-02-08T02:00:42.887Z,7.00
2024-02-08T02:00:53.014Z,6.99
2024-02-08T02:01:02.898Z,6.96
2024-02-08T02:01:12.964Z,6.99
2024-02-08T02:01:22.909Z,6.97
2024-02-08T02:01:32.890Z,6.99
2024-02-08T02:01:52.944Z,6.99
2024-02-08T02:02:03.280Z,6.97
2024-02-08T02:02:12.878Z,6.97
2024-02-08T02:02:23.020Z,6.97
2024-02-08T02:02:32.855Z,6.97
2024-02-08T02:02:42.877Z,6.96
2024-02-08T02:03:02.858Z,6.97
2024-02-08T02:03:13.076Z,6.97
2024-02-08T02:03:22.937Z,6.97
2024-02-08T02:03:33.113Z,6.94
2024-02-08T02:03:42.997Z,6.94
2024-02-08T02:03:52.945Z,6.96
2024-02-08T02:04:12.948Z,6.96
2024-02-08T02:04:22.832Z,6.96
2024-02-08T02:04:32.964Z,6.96
2024-02-08T02:04:43.682Z,6.94
2024-02-08T02:04:52.921Z,6.96
2024-02-08T02:05:02.916Z,6.94
2024-02-08T02:05:12.915Z,6.96
2024-02-08T02:05:32.852Z,6.94
2024-02-08T02:05:42.900Z,6.94
2024-02-08T02:05:52.857Z,6.94
2024-02-08T02:06:02.959Z,6.93
2024-02-08T02:06:13.703Z,6.94
2024-02-08T02:06:23.033Z,6.94
2024-02-08T02:06:42.898Z,6.94
2024-02-08T02:06:52.940Z,6.94
2024-02-08T02:07:03.000Z,6.94
2024-02-08T02:07:12.815Z,6.93
2024-02-08T02:07:22.847Z,6.93
2024-02-08T02:07:32.880Z,6.94
2024-02-08T02:07:53.583Z,6.93
2024-02-08T02:08:02.882Z,6.93
2024-02-08T02:08:12.882Z,6.94
2024-02-08T02:08:23.077Z,6.94
2024-02-08T02:08:32.906Z,6.94
2024-02-08T02:08:42.804Z,6.94
2024-02-08T02:09:02.805Z,6.97
2024-02-08T02:09:12.813Z,6.94
2024-02-08T02:09:23.689Z,6.96
2024-02-08T02:09:33.029Z,6.96
2024-02-08T02:09:42.860Z,6.96
2024-02-08T02:09:53.536Z,6.94
2024-02-08T02:10:12.826Z,6.96
2024-02-08T02:10:22.809Z,6.96
2024-02-08T02:10:32.832Z,6.97
2024-02-08T02:10:43.060Z,6.96
2024-02-08T02:10:52.821Z,6.97
2024-02-08T02:11:02.987Z,6.96
2024-02-08T02:11:12.946Z,6.96
2024-02-08T02:11:32.831Z,6.96
2024-02-08T02:11:43.004Z,6.96
2024-02-08T02:11:52.959Z,6.96
2024-02-08T02:12:02.876Z,6.96
2024-02-08T02:12:12.783Z,6.96
2024-02-08T02:12:22.796Z,6.97
2024-02-08T02:12:42.797Z,6.97
2024-02-08T02:12:52.820Z,6.97
2024-02-08T02:13:02.764Z,6.96
2024-02-08T02:13:12.792Z,6.97
2024-02-08T02:13:22.780Z,6.96
2024-02-08T02:13:32.845Z,6.96
2024-02-08T02:13:52.833Z,6.96
2024-02-08T02:14:02.842Z,6.96
2024-02-08T02:14:12.840Z,6.97
2024-02-08T02:14:22.790Z,6.97
2024-02-08T02:14:32.764Z,6.96
2024-02-08T02:14:42.762Z,6.97
2024-02-08T02:14:54.545Z,6.94
2024-02-08T02:15:12.764Z,6.94
2024-02-08T02:15:22.761Z,6.96
2024-02-08T02:15:32.809Z,6.94
2024-02-08T02:15:42.759Z,6.96
2024-02-08T02:15:53.607Z,6.96
2024-02-08T02:16:02.741Z,6.96
2024-02-08T02:16:22.755Z,6.97
2024-02-08T02:16:32.751Z,6.97
2024-02-08T02:16:42.744Z,6.97
2024-02-08T02:16:52.844Z,6.99
2024-02-08T02:17:02.850Z,6.97
2024-02-08T02:17:12.822Z,6.96
2024-02-08T02:17:32.762Z,6.97
2024-02-08T02:17:42.747Z,6.99
2024-02-08T02:17:52.828Z,6.96
2024-02-08T02:18:02.932Z,6.97
2024-02-08T02:18:12.831Z,6.97
2024-02-08T02:18:22.829Z,6.97
2024-02-08T02:18:42.798Z,6.96
2024-02-08T02:18:54.257Z,6.97
2024-02-08T02:19:02.866Z,6.97
2024-02-08T02:19:12.778Z,6.97
2024-02-08T02:19:22.718Z,6.97
2024-02-08T02:19:32.825Z,6.99
2024-02-08T02:19:42.904Z,6.97
2024-02-08T02:20:02.816Z,6.97
2024-02-08T02:20:12.873Z,7.00
2024-02-08T02:20:22.717Z,6.97
2024-02-08T02:20:32.726Z,6.97
2024-02-08T02:20:42.746Z,6.99
2024-02-08T02:20:52.714Z,6.99
2024-02-08T02:21:12.712Z,6.99
2024-02-08T02:21:22.708Z,6.99
2024-02-08T02:21:32.752Z,6.96
2024-02-08T02:21:42.698Z,6.99
2024-02-08T02:21:52.729Z,6.99
2024-02-08T02:22:02.727Z,7.01
2024-02-08T02:22:22.700Z,6.99
2024-02-08T02:22:32.761Z,6.97
2024-02-08T02:22:42.721Z,6.99
2024-02-08T02:22:52.732Z,6.99
2024-02-08T02:23:02.802Z,6.99
2024-02-08T02:23:12.921Z,6.99
2024-02-08T02:23:22.701Z,6.99
2024-02-08T02:23:42.682Z,7.00
2024-02-08T02:23:52.692Z,6.99
2024-02-08T02:24:02.694Z,6.97
2024-02-08T02:24:12.694Z,6.99
2024-02-08T02:24:22.685Z,6.99
2024-02-08T02:24:32.690Z,6.97
2024-02-08T02:24:52.729Z,6.99
2024-02-08T02:25:02.675Z,6.99
2024-02-08T02:25:12.680Z,6.99
2024-02-08T02:25:22.683Z,7.00
2024-02-08T02:25:32.713Z,7.00
2024-02-08T02:25:42.809Z,6.99
2024-02-08T02:26:02.740Z,6.97
2024-02-08T02:26:12.710Z,6.99
2024-02-08T02:26:22.666Z,6.99
2024-02-08T02:26:32.701Z,7.01
2024-02-08T02:26:42.669Z,6.99
2024-02-08T02:26:52.676Z,7.00
2024-02-08T02:27:02.702Z,7.00
2024-02-08T02:27:22.668Z,7.01
2024-02-08T02:27:32.661Z,7.01
2024-02-08T02:27:42.694Z,7.00
2024-02-08T02:27:52.660Z,7.01
2024-02-08T02:28:02.675Z,7.01
2024-02-08T02:28:12.656Z,7.01
2024-02-08T02:28:32.689Z,7.01
2024-02-08T02:28:42.709Z,7.01
2024-02-08T02:28:52.694Z,7.01
2024-02-08T02:29:02.705Z,7.04
2024-02-08T02:29:12.742Z,7.04
2024-02-08T02:29:22.638Z,7.04
2024-02-08T02:29:42.658Z,7.04
2024-02-08T02:29:52.657Z,7.04
2024-02-08T02:30:02.646Z,7.04
2024-02-08T02:30:12.650Z,7.04
2024-02-08T02:30:22.639Z,7.05
2024-02-08T02:30:32.754Z,7.04
2024-02-08T02:30:52.652Z,7.04
2024-02-08T02:31:02.628Z,7.04
2024-02-08T02:31:12.654Z,7.04
2024-02-08T02:31:22.641Z,7.04
2024-02-08T02:31:32.662Z,7.01
2024-02-08T02:31:42.646Z,7.05
2024-02-08T02:31:52.791Z,7.04
2024-02-08T02:32:12.811Z,7.05
2024-02-08T02:32:22.814Z,7.05
2024-02-08T02:32:33.276Z,7.04
2024-02-08T02:32:42.666Z,7.04
2024-02-08T02:32:52.773Z,7.07
2024-02-08T02:33:02.688Z,7.05
2024-02-08T02:33:22.695Z,7.04
2024-02-08T02:33:32.749Z,7.05
2024-02-08T02:33:42.719Z,7.07